createdAt,value
2017-05-21T00:01:13.652Z,79.20
2017-05-21T00:03:41.570Z,80.10
2017-05-21T00:06:09.305Z,80.30
2017-05-21T00:08:36.780Z,81.00
2017-05-21T00:11:04.694Z,80.30
2017-05-21T00:13:33.467Z,80.10
2017-05-21T00:16:00.950Z,80.10
2017-05-21T00:18:28.871Z,81.00
2017-05-21T00:20:56.745Z,80.80
2017-05-21T00:23:24.618Z,80.80
2017-05-21T00:25:52.529Z,80.90
2017-05-21T00:28:20.407Z,80.70
2017-05-21T00:30:47.894Z,80.70
2017-05-21T00:33:15.830Z,81.10
2017-05-21T00:35:43.703Z,81.40
2017-05-21T00:38:11.198Z,81.40
2017-05-21T00:40:39.018Z,81.20
2017-05-21T00:43:06.903Z,81.30
2017-05-21T00:45:34.805Z,81.10
2017-05-21T00:48:02.315Z,81.10
2017-05-21T00:50:29.797Z,81.20
2017-05-21T00:52:57.679Z,80.80
2017-05-21T00:55:25.687Z,80.90
2017-05-21T00:57:53.560Z,81.00
2017-05-21T01:00:21.056Z,81.00
2017-05-21T01:02:48.965Z,81.20
2017-05-21T01:05:16.849Z,81.30
2017-05-21T01:07:44.344Z,81.30
2017-05-21T01:10:12.260Z,81.30
2017-05-21T01:12:40.145Z,81.60
2017-05-21T01:15:08.022Z,82.60
2017-05-21T01:17:35.933Z,82.90
2017-05-21T01:20:03.809Z,82.10
2017-05-21T01:22:31.693Z,81.70
2017-05-21T01:24:59.598Z,81.90
2017-05-21T01:27:27.086Z,81.90
2017-05-21T01:29:54.962Z,81.70
2017-05-21T01:32:23.138Z,81.70
2017-05-21T01:34:50.622Z,81.70
2017-05-21T01:37:18.525Z,82.60
2017-05-21T01:39:46.734Z,83.60
2017-05-21T01:42:14.220Z,83.60
2017-05-21T01:44:42.102Z,83.20
2017-05-21T01:47:10.194Z,82.40
2017-05-21T01:49:37.674Z,82.50
2017-05-21T01:52:05.174Z,83.50
2017-05-21T01:54:33.217Z,83.80
2017-05-21T01:57:00.708Z,83.80
2017-05-21T01:59:28.596Z,84.60
2017-05-21T02:01:56.526Z,82.90
2017-05-21T02:04:24.399Z,82.40
2017-05-21T02:06:52.306Z,82.40
2017-05-21T02:09:20.191Z,82.20
2017-05-21T02:11:47.676Z,82.20
2017-05-21T02:14:15.508Z,82.00
2017-05-21T02:16:43.476Z,82.00
2017-05-21T02:19:10.924Z,82.00
2017-05-21T02:21:38.776Z,82.20
2017-05-21T02:24:06.660Z,82.30
2017-05-21T02:26:34.514Z,82.30
2017-05-21T02:29:02.364Z,82.90
2017-05-21T02:31:30.266Z,82.90
2017-05-21T02:33:58.432Z,82.30
2017-05-21T02:36:26.285Z,82.10
2017-05-21T02:38:54.441Z,82.30
2017-05-21T02:41:22.292Z,82.90
2017-05-21T02:43:50.141Z,83.60
2017-05-21T02:46:18.020Z,84.30
2017-05-21T02:48:45.874Z,84.50
2017-05-21T02:51:13.724Z,83.50
2017-05-21T02:53:41.612Z,82.50
2017-05-21T02:56:09.459Z,82.60
2017-05-21T02:58:37.309Z,82.20
2017-05-21T03:01:05.169Z,82.40
2017-05-21T03:03:33.015Z,82.50
2017-05-21T03:06:00.866Z,83.60
2017-05-21T03:08:28.594Z,83.60
2017-05-21T03:10:56.448Z,83.30
2017-05-21T03:13:24.345Z,82.70
2017-05-21T03:15:52.498Z,82.60
2017-05-21T03:18:21.373Z,82.90
2017-05-21T03:20:48.816Z,82.90
2017-05-21T03:23:16.291Z,82.70
2017-05-21T03:25:44.154Z,82.60
2017-05-21T03:28:12.000Z,82.30
2017-05-21T03:30:40.192Z,82.90
2017-05-21T03:33:08.049Z,82.90
2017-05-21T03:35:35.904Z,83.00
2017-05-21T03:38:04.107Z,82.80
2017-05-21T03:40:31.957Z,82.90
2017-05-21T03:42:59.804Z,82.70
2017-05-21T03:45:27.506Z,82.70
2017-05-21T03:47:55.349Z,82.80
2017-05-21T03:50:23.204Z,82.50
2017-05-21T03:52:51.395Z,82.30
2017-05-21T03:55:19.243Z,82.00
2017-05-21T03:57:47.093Z,81.80
2017-05-21T04:00:14.990Z,82.00
2017-05-21T04:02:42.832Z,81.90
2017-05-21T04:05:10.291Z,81.90
2017-05-21T04:07:38.264Z,82.60
2017-05-21T04:10:05.725Z,82.60
2017-05-21T04:12:33.572Z,82.00
2017-05-21T04:15:01.457Z,81.80
2017-05-21T04:17:29.303Z,81.70
2017-05-21T04:19:57.153Z,81.70
2017-05-21T04:22:25.052Z,82.00
2017-05-21T04:24:52.902Z,82.40
2017-05-21T04:27:20.745Z,82.40
2017-05-21T04:29:48.944Z,82.10
2017-05-21T04:32:16.795Z,82.00
2017-05-21T04:34:44.653Z,82.10
2017-05-21T04:37:12.549Z,82.30
2017-05-21T04:39:40.405Z,82.30
2017-05-21T04:42:08.248Z,84.20
2017-05-21T04:44:36.212Z,85.10
2017-05-21T04:47:03.673Z,85.10
2017-05-21T04:49:31.532Z,84.70
2017-05-21T04:51:59.633Z,84.30
2017-05-21T04:54:27.483Z,84.20
2017-05-21T04:56:55.333Z,84.80
2017-05-21T04:59:22.800Z,84.80
2017-05-21T05:01:50.661Z,84.10
2017-05-21T05:04:18.515Z,84.10
2017-05-21T05:06:46.687Z,84.60
2017-05-21T05:09:14.538Z,84.70
2017-05-21T05:11:42.398Z,84.80
2017-05-21T05:14:10.277Z,85.10
2017-05-21T05:16:38.775Z,85.90
2017-05-21T05:19:06.631Z,85.80
2017-05-21T05:21:34.505Z,85.20
2017-05-21T05:24:01.960Z,85.20
2017-05-21T05:26:29.808Z,85.70
2017-05-21T05:28:57.479Z,85.70
2017-05-21T05:31:25.332Z,84.70
2017-05-21T05:33:53.276Z,84.80
2017-05-21T05:36:21.395Z,84.20
2017-05-21T05:38:49.243Z,85.10
2017-05-21T05:41:17.100Z,85.20
2017-05-21T05:43:45.590Z,85.60
2017-05-21T05:46:13.448Z,85.00
2017-05-21T05:48:41.304Z,84.80
2017-05-21T05:51:09.271Z,85.10
2017-05-21T05:53:37.120Z,84.50
2017-05-21T05:56:04.982Z,84.00
2017-05-21T05:58:32.550Z,84.00
2017-05-21T06:01:00.407Z,83.20
2017-05-21T06:03:28.254Z,83.00
2017-05-21T06:05:56.148Z,82.40
2017-05-21T06:08:23.996Z,81.00
2017-05-21T06:10:52.194Z,81.20
2017-05-21T06:13:20.178Z,80.80
2017-05-21T06:15:48.034Z,81.00
2017-05-21T06:18:15.896Z,80.20
2017-05-21T06:20:43.784Z,80.00
2017-05-21T06:23:11.637Z,80.30
2017-05-21T06:25:39.512Z,79.50
2017-05-21T06:28:07.402Z,79.80
2017-05-21T06:30:34.860Z,79.80
2017-05-21T06:33:02.713Z,78.60
2017-05-21T06:35:30.836Z,78.30
2017-05-21T06:37:58.701Z,77.70
2017-05-21T06:40:26.783Z,77.60
2017-05-21T06:42:54.756Z,77.50
2017-05-21T06:45:22.608Z,77.50
2017-05-21T06:47:50.474Z,76.10
2017-05-21T06:50:18.603Z,76.20
2017-05-21T06:52:46.459Z,76.30
2017-05-21T06:55:15.483Z,75.40
2017-05-21T06:57:43.706Z,75.70
2017-05-21T07:00:11.580Z,75.40
2017-05-21T07:02:39.588Z,74.60
2017-05-21T07:05:07.805Z,73.30
2017-05-21T07:07:35.261Z,73.30
2017-05-21T07:10:03.108Z,72.00
2017-05-21T07:12:30.985Z,71.00
2017-05-21T07:14:58.853Z,72.00
2017-05-21T07:17:26.697Z,70.60
2017-05-21T07:19:54.184Z,70.60
2017-05-21T07:22:22.032Z,72.60
2017-05-21T07:24:49.887Z,66.90
2017-05-21T07:27:17.363Z,66.90
2017-05-21T07:29:45.215Z,67.20
2017-05-21T07:32:13.516Z,67.80
2017-05-21T07:34:42.053Z,67.30
2017-05-21T07:37:09.918Z,66.80
2017-05-21T07:39:38.025Z,67.20
2017-05-21T07:42:06.622Z,66.60
2017-05-21T07:44:34.480Z,65.20
2017-05-21T07:47:02.358Z,65.90
2017-05-21T07:49:30.514Z,64.70
2017-05-21T07:51:58.385Z,64.50
2017-05-21T07:54:25.859Z,64.50
2017-05-21T07:56:53.742Z,61.70
2017-05-21T07:59:21.614Z,59.50
2017-05-21T08:01:49.472Z,60.90
2017-05-21T08:04:17.707Z,61.30
2017-05-21T08:06:45.566Z,59.40
2017-05-21T08:09:13.426Z,58.30
2017-05-21T08:11:41.583Z,57.30
2017-05-21T08:14:09.037Z,57.30
2017-05-21T08:16:36.895Z,56.00
2017-05-21T08:19:04.380Z,56.00
2017-05-21T08:21:32.238Z,57.50
2017-05-21T08:24:00.099Z,57.50
2017-05-21T08:26:28.052Z,56.90
2017-05-21T08:28:55.505Z,56.90
2017-05-21T08:31:23.374Z,57.30
2017-05-21T08:33:51.155Z,57.30
2017-05-21T08:36:18.600Z,56.20
2017-05-21T08:38:47.530Z,55.90
2017-05-21T08:41:15.426Z,56.50
2017-05-21T08:43:43.289Z,55.10
2017-05-21T08:46:10.741Z,55.10
2017-05-21T08:48:38.655Z,55.20
2017-05-21T08:51:06.497Z,57.10
2017-05-21T08:53:34.198Z,57.20
2017-05-21T08:56:02.415Z,56.20
2017-05-21T08:58:30.677Z,57.00
2017-05-21T09:00:58.270Z,57.00
2017-05-21T09:03:26.156Z,54.30
2017-05-21T09:05:54.143Z,53.10
2017-05-21T09:08:23.728Z,53.10
2017-05-21T09:10:51.846Z,52.10
2017-05-21T09:13:19.805Z,51.60
2017-05-21T09:15:49.885Z,50.90
2017-05-21T09:18:20.460Z,51.40
2017-05-21T09:20:47.918Z,51.40
2017-05-21T09:23:15.760Z,49.70
2017-05-21T09:25:43.904Z,50.60
2017-05-21T09:28:11.776Z,49.90
2017-05-21T09:30:39.632Z,50.40
2017-05-21T09:33:07.532Z,50.80
2017-05-21T09:35:35.904Z,50.60
2017-05-21T09:38:03.762Z,50.40
2017-05-21T09:40:31.994Z,48.50
2017-05-21T09:43:00.375Z,49.00
2017-05-21T09:45:28.230Z,48.30
2017-05-21T09:47:56.119Z,47.50
2017-05-21T09:50:23.975Z,47.50
2017-05-21T09:52:51.447Z,47.40
2017-05-21T09:55:19.352Z,47.50
2017-05-21T09:57:47.321Z,45.40
2017-05-21T10:00:15.179Z,45.70
2017-05-21T10:02:44.166Z,45.50
2017-05-21T10:05:11.659Z,45.50
2017-05-21T10:07:39.113Z,46.30
2017-05-21T10:10:07.201Z,45.80
2017-05-21T10:12:35.245Z,45.30
2017-05-21T10:15:03.094Z,46.20
2017-05-21T10:17:30.958Z,44.20
2017-05-21T10:19:58.865Z,46.00
2017-05-21T10:22:26.314Z,46.00
2017-05-21T10:24:54.161Z,46.20
2017-05-21T10:27:22.032Z,44.90
2017-05-21T10:29:49.891Z,46.50
2017-05-21T10:32:17.744Z,44.50
2017-05-21T10:34:45.628Z,45.10
2017-05-21T10:37:13.508Z,45.00
2017-05-21T10:39:40.943Z,45.00
2017-05-21T10:42:08.806Z,42.40
2017-05-21T10:44:37.292Z,43.60
2017-05-21T10:47:05.135Z,43.30
2017-05-21T10:49:32.602Z,43.30
2017-05-21T10:52:00.495Z,41.90
2017-05-21T10:54:28.350Z,40.60
2017-05-21T10:56:56.211Z,41.30
2017-05-21T10:59:24.468Z,41.10
2017-05-21T11:01:52.312Z,39.80
2017-05-21T11:04:20.177Z,38.90
2017-05-21T11:06:48.282Z,38.90
2017-05-21T11:09:16.152Z,38.50
2017-05-21T11:11:44.003Z,37.30
2017-05-21T11:14:11.904Z,38.90
2017-05-21T11:16:39.758Z,39.20
2017-05-21T11:19:07.604Z,41.20
2017-05-21T11:21:35.498Z,41.30
2017-05-21T11:24:02.971Z,41.30
2017-05-21T11:26:30.829Z,41.30
2017-05-21T11:28:58.716Z,41.30
2017-05-21T11:31:26.566Z,41.70
2017-05-21T11:33:54.429Z,43.40
2017-05-21T11:36:22.343Z,43.40
2017-05-21T11:38:50.205Z,43.10
2017-05-21T11:41:18.061Z,40.90
2017-05-21T11:43:45.959Z,40.30
2017-05-21T11:46:13.423Z,40.30
2017-05-21T11:48:41.378Z,41.60
2017-05-21T11:51:24.936Z,40.90
2017-05-21T11:53:52.775Z,40.20
2017-05-21T11:56:21.698Z,39.80
2017-05-21T11:58:49.604Z,43.60
2017-05-21T12:01:17.084Z,43.70
2017-05-21T12:03:44.949Z,45.70
2017-05-21T12:06:13.128Z,45.30
2017-05-21T12:08:40.987Z,43.40
2017-05-21T12:11:08.856Z,41.90
2017-05-21T12:13:36.738Z,41.40
2017-05-21T12:16:04.965Z,38.20
2017-05-21T12:18:32.815Z,39.20
2017-05-21T12:21:01.119Z,38.90
2017-05-21T12:23:28.584Z,38.90
2017-05-21T12:25:56.696Z,37.70
2017-05-21T12:28:24.837Z,37.80
2017-05-21T12:30:52.669Z,39.40
2017-05-21T12:33:20.532Z,38.20
2017-05-21T12:35:48.412Z,38.00
2017-05-21T12:38:15.874Z,38.00
2017-05-21T12:40:43.739Z,36.50
2017-05-21T12:43:11.613Z,35.70
2017-05-21T12:45:39.063Z,35.70
2017-05-21T12:48:06.535Z,35.80
2017-05-21T12:50:34.839Z,35.10
2017-05-21T12:53:02.679Z,36.80
2017-05-21T12:55:30.872Z,37.80
2017-05-21T12:57:59.072Z,39.00
2017-05-21T13:00:27.548Z,40.10
2017-05-21T13:02:55.393Z,40.40
2017-05-21T13:05:24.136Z,40.80
2017-05-21T13:07:52.007Z,41.10
2017-05-21T13:10:19.874Z,40.90
2017-05-21T13:12:47.740Z,40.00
2017-05-21T13:15:15.584Z,37.70
2017-05-21T13:17:43.451Z,35.70
2017-05-21T13:20:11.600Z,37.80
2017-05-21T13:22:39.463Z,38.40
2017-05-21T13:25:07.327Z,38.40
2017-05-21T13:27:35.210Z,38.60
2017-05-21T13:30:03.060Z,37.70
2017-05-21T13:32:30.625Z,37.70
2017-05-21T13:34:58.505Z,37.60
2017-05-21T13:37:26.416Z,36.30
2017-05-21T13:39:54.286Z,37.80
2017-05-21T13:42:22.458Z,35.70
2017-05-21T13:44:50.310Z,34.10
2017-05-21T13:47:18.178Z,36.50
2017-05-21T13:49:48.237Z,37.70
2017-05-21T13:52:15.684Z,37.70
2017-05-21T13:54:43.523Z,36.70
2017-05-21T13:57:11.413Z,36.40
2017-05-21T13:59:39.271Z,35.00
2017-05-21T14:02:07.375Z,34.30
2017-05-21T14:04:35.268Z,33.60
2017-05-21T14:07:02.715Z,33.60
2017-05-21T14:09:30.579Z,35.30
2017-05-21T14:11:58.549Z,35.60
2017-05-21T14:14:26.410Z,34.30
2017-05-21T14:16:54.278Z,33.30
2017-05-21T14:19:22.408Z,32.90
2017-05-21T14:21:51.609Z,33.40
2017-05-21T14:24:19.457Z,33.90
2017-05-21T14:26:47.304Z,37.00
2017-05-21T14:29:15.957Z,38.60
2017-05-21T14:31:43.805Z,38.30
2017-05-21T14:34:11.652Z,39.10
2017-05-21T14:36:39.515Z,40.60
2017-05-21T14:39:06.964Z,40.70
2017-05-21T14:41:35.069Z,40.60
2017-05-21T14:44:02.787Z,41.50
2017-05-21T14:46:30.648Z,43.40
2017-05-21T14:48:58.099Z,43.40
2017-05-21T14:51:25.986Z,43.60
2017-05-21T14:53:53.849Z,43.00
2017-05-21T14:56:21.693Z,42.60
2017-05-21T14:58:49.563Z,42.50
2017-05-21T15:01:17.022Z,42.50
2017-05-21T15:03:44.880Z,41.30
2017-05-21T15:06:12.892Z,42.20
2017-05-21T15:08:40.749Z,43.10
2017-05-21T15:11:08.609Z,43.00
2017-05-21T15:13:37.115Z,42.50
2017-05-21T15:16:04.971Z,43.90
2017-05-21T15:18:32.813Z,44.00
2017-05-21T15:21:01.464Z,44.90
2017-05-21T15:23:28.931Z,44.90
2017-05-21T15:25:56.787Z,44.60
2017-05-21T15:28:24.265Z,44.60
2017-05-21T15:30:52.127Z,45.50
2017-05-21T15:33:19.971Z,45.20
2017-05-21T15:35:49.914Z,45.50
2017-05-21T15:38:17.772Z,45.70
2017-05-21T15:40:45.432Z,45.70
2017-05-21T15:43:14.585Z,47.70
2017-05-21T15:45:42.439Z,48.30
2017-05-21T15:48:11.858Z,48.10
2017-05-21T15:50:39.732Z,48.40
2017-05-21T15:53:07.198Z,48.40
2017-05-21T15:55:34.654Z,48.60
2017-05-21T15:58:02.843Z,49.40
2017-05-21T16:00:30.310Z,49.40
2017-05-21T16:02:58.169Z,49.20
2017-05-21T16:05:26.297Z,49.80
2017-05-21T16:07:54.148Z,50.10
2017-05-21T16:10:22.002Z,50.00
2017-05-21T16:12:49.887Z,49.90
2017-05-21T16:15:17.362Z,49.90
2017-05-21T16:17:45.218Z,51.30
2017-05-21T16:20:13.321Z,52.00
2017-05-21T16:22:41.443Z,51.90
2017-05-21T16:25:09.306Z,51.90
2017-05-21T16:27:37.683Z,52.30
2017-05-21T16:30:05.523Z,52.30
2017-05-21T16:32:33.387Z,53.10
2017-05-21T16:35:00.864Z,53.10
2017-05-21T16:37:28.727Z,51.80
2017-05-21T16:39:56.583Z,53.30
2017-05-21T16:42:24.550Z,52.70
2017-05-21T16:44:52.424Z,53.20
2017-05-21T16:47:20.279Z,52.40
2017-05-21T16:49:48.166Z,53.70
2017-05-21T16:55:18.627Z,54.10
2017-05-21T16:57:52.353Z,54.10
2017-05-21T17:00:28.437Z,55.20
2017-05-21T17:03:03.553Z,54.80
2017-05-21T17:05:33.725Z,54.90
2017-05-21T17:08:03.830Z,54.90
2017-05-21T17:10:32.152Z,55.10
2017-05-21T17:13:01.296Z,55.40
2017-05-21T17:15:30.399Z,55.80
2017-05-21T17:17:59.797Z,56.00
2017-05-21T17:20:27.921Z,55.50
2017-05-21T17:22:56.062Z,55.70
2017-05-21T17:25:24.249Z,55.40
2017-05-21T17:27:52.492Z,56.20
2017-05-21T17:30:20.407Z,56.30
2017-05-21T17:32:48.457Z,56.50
2017-05-21T17:35:16.394Z,57.00
2017-05-21T17:37:44.303Z,56.60
2017-05-21T17:40:12.337Z,57.20
2017-05-21T17:42:40.029Z,57.20
2017-05-21T17:45:08.132Z,57.30
2017-05-21T17:47:36.656Z,57.10
2017-05-21T17:50:05.783Z,57.30
2017-05-21T17:52:34.019Z,57.40
2017-05-21T17:55:02.212Z,57.10
2017-05-21T17:57:32.354Z,57.80
2017-05-21T18:00:00.584Z,57.20
2017-05-21T18:02:30.409Z,56.60
2017-05-21T18:04:59.278Z,57.60
2017-05-21T18:07:27.632Z,56.60
2017-05-21T18:09:55.853Z,56.90
2017-05-21T18:12:24.739Z,57.50
2017-05-21T18:14:52.592Z,57.50
2017-05-21T18:17:20.440Z,55.90
2017-05-21T18:19:48.751Z,57.30
2017-05-21T18:22:16.971Z,58.40
2017-05-21T18:24:45.189Z,58.00
2017-05-21T18:27:13.465Z,58.00
2017-05-21T18:29:41.779Z,58.70
2017-05-21T18:32:10.103Z,59.10
2017-05-21T18:34:39.379Z,59.80
2017-05-21T18:37:08.354Z,60.10
2017-05-21T18:39:36.748Z,60.60
2017-05-21T18:42:05.051Z,60.40
2017-05-21T18:44:33.855Z,60.70
2017-05-21T18:47:02.095Z,60.80
2017-05-21T18:49:30.909Z,60.90
2017-05-21T18:51:59.196Z,61.50
2017-05-21T18:54:28.463Z,61.00
2017-05-21T18:56:57.136Z,62.00
2017-05-21T18:59:26.268Z,62.20
2017-05-21T19:01:55.570Z,61.90
2017-05-21T19:04:24.219Z,62.20
2017-05-21T19:06:52.590Z,61.00
2017-05-21T19:09:20.883Z,60.90
2017-05-21T19:11:49.482Z,61.40
2017-05-21T19:14:17.891Z,61.70
2017-05-21T19:16:46.246Z,60.90
2017-05-21T19:19:14.833Z,60.50
2017-05-21T19:21:43.883Z,59.90
2017-05-21T19:24:12.215Z,61.20
2017-05-21T19:26:40.858Z,62.00
2017-05-21T19:29:09.685Z,62.00
2017-05-21T19:31:37.993Z,62.10
2017-05-21T19:34:06.477Z,62.40
2017-05-21T19:36:36.157Z,62.60
2017-05-21T19:39:04.560Z,62.40
2017-05-21T19:41:33.248Z,63.00
2017-05-21T19:44:01.113Z,62.90
2017-05-21T19:46:30.001Z,62.60
2017-05-21T19:48:58.345Z,63.60
2017-05-21T19:51:26.584Z,63.70
2017-05-21T19:53:54.934Z,63.70
2017-05-21T19:56:22.956Z,63.70
2017-05-21T19:58:51.242Z,63.60
2017-05-21T20:01:19.516Z,63.60
2017-05-21T20:03:47.812Z,63.60
2017-05-21T20:06:16.101Z,63.80
2017-05-21T20:08:44.438Z,63.80
2017-05-21T20:11:12.909Z,63.80
2017-05-21T20:13:41.074Z,63.80
2017-05-21T20:16:09.026Z,63.70
2017-05-21T20:18:37.436Z,64.30
2017-05-21T20:21:05.729Z,64.40
2017-05-21T20:23:33.594Z,64.40
2017-05-21T20:26:02.112Z,64.30
2017-05-21T20:28:30.524Z,64.50
2017-05-21T20:30:58.836Z,64.50
2017-05-21T20:33:27.158Z,65.40
2017-05-21T20:35:55.416Z,64.10
2017-05-21T20:38:23.219Z,64.10
2017-05-21T20:40:51.675Z,65.30
2017-05-21T20:43:20.065Z,65.30
2017-05-21T20:45:48.406Z,64.90
2017-05-21T20:48:16.926Z,64.50
2017-05-21T20:50:45.237Z,64.40
2017-05-21T20:53:13.488Z,64.70
2017-05-21T20:55:42.045Z,64.80
2017-05-21T20:58:10.274Z,65.00
2017-05-21T21:00:38.430Z,65.00
2017-05-21T21:03:06.683Z,65.00
2017-05-21T21:05:35.505Z,65.20
2017-05-21T21:08:03.548Z,64.80
2017-05-21T21:10:31.837Z,65.10
2017-05-21T21:12:59.749Z,66.00
2017-05-21T21:15:27.634Z,65.50
2017-05-21T21:17:55.158Z,65.50
2017-05-21T21:20:23.015Z,65.40
2017-05-21T21:22:50.877Z,65.60
2017-05-21T21:25:18.445Z,65.60
2017-05-21T21:27:46.298Z,66.70
2017-05-21T21:30:14.142Z,66.00
2017-05-21T21:32:42.016Z,65.80
2017-05-21T21:35:09.868Z,66.00
2017-05-21T21:37:37.720Z,66.50
2017-05-21T21:40:05.623Z,66.20
2017-05-21T21:42:33.085Z,66.20
2017-05-21T21:45:00.934Z,66.60
2017-05-21T21:50:03.916Z,66.40
2017-05-21T21:52:31.693Z,66.40
2017-05-21T21:54:59.528Z,66.90
2017-05-21T21:57:27.401Z,67.00
2017-05-21T21:59:55.606Z,67.30
2017-05-21T22:02:23.455Z,67.30
2017-05-21T22:04:51.293Z,67.40
2017-05-21T22:07:18.771Z,67.40
2017-05-21T22:09:46.224Z,67.80
2017-05-21T22:12:14.082Z,68.30
2017-05-21T22:14:42.168Z,68.30
2017-05-21T22:17:09.614Z,68.30
2017-05-21T22:19:37.841Z,68.70
2017-05-21T22:22:06.062Z,68.80
2017-05-21T22:24:34.550Z,68.70
2017-05-21T22:27:02.394Z,68.90
2017-05-21T22:29:30.250Z,68.60
2017-05-21T22:31:58.439Z,68.20
2017-05-21T22:34:26.288Z,67.20
2017-05-21T22:36:54.151Z,67.60
2017-05-21T22:39:22.542Z,67.40
2017-05-21T22:41:50.383Z,67.90
2017-05-21T22:44:18.241Z,67.60
2017-05-21T22:46:46.106Z,67.50
2017-05-21T22:49:13.939Z,66.80
2017-05-21T22:51:41.788Z,67.50
2017-05-21T22:54:09.949Z,68.70
2017-05-21T22:56:37.794Z,67.90
2017-05-21T22:59:05.250Z,67.90
2017-05-21T23:01:33.135Z,68.00
2017-05-21T23:04:00.984Z,68.70
2017-05-21T23:06:28.444Z,68.70
2017-05-21T23:08:56.316Z,70.90
2017-05-21T23:11:24.151Z,71.00
2017-05-21T23:13:52.001Z,71.00
2017-05-21T23:16:19.865Z,70.90
2017-05-21T23:18:47.708Z,70.60
2017-05-21T23:21:15.544Z,70.80
2017-05-21T23:23:43.503Z,71.20
2017-05-21T23:26:11.352Z,71.20
2017-05-21T23:28:39.296Z,71.80
2017-05-21T23:31:06.988Z,71.80
2017-05-21T23:33:34.836Z,72.00
2017-05-21T23:36:02.683Z,72.50
2017-05-21T23:38:30.312Z,72.50
2017-05-21T23:40:57.760Z,72.10
2017-05-21T23:43:25.604Z,69.80
2017-05-21T23:45:53.608Z,69.30
2017-05-21T23:48:21.453Z,68.50
2017-05-21T23:50:49.296Z,68.50
2017-05-21T23:53:17.172Z,69.30
2017-05-21T23:55:45.268Z,69.30
2017-05-21T23:58:13.116Z,69.90
